• Join FlightAware (Why Join?)
  • Login
  • US Flag 
08:03AM EDT


 

Airport Tracker/Info


-or-


 

Live Flight TrackerFlight Track Log ✈ ANZ356 ✈ 04-Oct-2013 ✈ NZCH / CHC - NZWN / WLG

Flight Track Log - Related Links

Times and Time Zones

All times are in EDT time to prevent confusion due to time zone crossing. See the ANZ356 flight status page for this flight to view local times or setup timezone preferences in your user account.

Time Position Orientation Groundspeed Altitude Reporting Facility
EDT Latitude Longitude Course Direction KTS MPH feet Rate Location/Type
12:39AM -43.4833 172.5500 39° Northeast 133 153  Level New Zealand
12:40AM -43.4181 172.6104 39° Northeast  Level Estimated
12:40AM -43.4333 172.5833 26° Northeast 207 238  Level New Zealand
12:41AM -43.3833 172.6500 44° Northeast 253 291  Level New Zealand
12:42AM -43.3167 172.7167 36° Northeast 294 338  Level New Zealand
12:43AM -43.2333 172.8000 36° Northeast 345 397  Level New Zealand
12:44AM -43.1500 172.8833 36° Northeast 348 400  Level New Zealand
12:45AM -43.0667 172.9667 36° Northeast 373 429  Level New Zealand
12:47AM -42.9667 173.0500 31° Northeast 392 451  Level New Zealand
12:48AM -42.8833 173.1500 41° Northeast 397 457  Level New Zealand
12:49AM -42.7833 173.2500 36° Northeast 418 481  Level New Zealand
12:50AM -42.6833 173.3500 36° Northeast 424 488  Level New Zealand
12:51AM -42.5833 173.4333 32° Northeast 401 461  Level New Zealand
12:52AM -42.5000 173.5333 42° Northeast 395 455  Level New Zealand
12:53AM -42.4000 173.6167 32° Northeast 384 442  Level New Zealand
12:54AM -42.3167 173.7000 36° Northeast 366 421  Level New Zealand
12:55AM -42.2333 173.7833 37° Northeast 362 417  Level New Zealand
12:56AM -42.1500 173.8667 37° Northeast 393 452  Level New Zealand
12:57AM -42.0500 173.9667 37° Northeast 391 450  Level New Zealand
12:58AM -41.9667 174.0500 37° Northeast 338 389  Level New Zealand
12:59AM -41.9000 174.1167 37° Northeast 300 345  Level New Zealand
01:00AM -41.8167 174.1833 31° Northeast 324 373  Level New Zealand
01:01AM -41.7500 174.1333 331° Northwest 274 315  Level New Zealand
01:02AM -41.7833 174.0333 246° West 284 327  Level New Zealand
01:03AM -41.8500 173.9833 209° Southwest 276 318  Level New Zealand
01:04AM -41.9167 174.0333 151° Southeast 297 342  Level New Zealand
01:05AM -41.8833 174.1333 66° East 311 358  Level New Zealand
01:06AM -41.8000 174.2000 31° Northeast 323 372  Level New Zealand
01:07AM -41.7333 174.2667 37° Northeast 311 358  Level New Zealand
01:08AM -41.6667 174.3500 43° Northeast 285 328  Level New Zealand
01:09AM -41.6167 174.4333 51° Northeast 266 306  Level New Zealand
01:11AM -41.5667 174.5000 45° Northeast 249 287  Level New Zealand
01:12AM -41.5167 174.5667 45° Northeast 240 276  Level New Zealand
01:13AM -41.5000 174.6333 72° East 222 255  Level New Zealand
01:14AM -41.5167 174.7167 105° East 218 251  Level New Zealand
01:15AM -41.4667 174.7667 37° Northeast 195 224  Level New Zealand
01:16AM -41.4333 174.8000 37° Northeast 176 203  Level New Zealand
01:17AM -41.3833 174.8000 360° North 125 144  Level New Zealand
01:18AM -41.3500 174.8000 360° North 131 151  Level New Zealand